createdAt,value
2018-02-01T00:00:22.576Z,9.00
2018-02-01T00:02:50.616Z,9.20
2018-02-01T00:05:18.839Z,10.17
2018-02-01T00:07:48.515Z,9.30
2018-02-01T00:10:16.775Z,11.73
2018-02-01T00:12:45.012Z,10.30
2018-02-01T00:15:13.248Z,10.77
2018-02-01T00:17:41.536Z,9.73
2018-02-01T00:20:09.758Z,11.43
2018-02-01T00:22:37.992Z,10.70
2018-02-01T00:25:07.768Z,11.87
2018-02-01T00:27:35.996Z,10.97
2018-02-01T00:30:04.221Z,10.03
2018-02-01T00:32:33.839Z,10.47
2018-02-01T00:35:02.720Z,9.83
2018-02-01T00:37:32.303Z,10.50
2018-02-01T00:40:01.575Z,9.73
2018-02-01T00:42:29.801Z,11.93
2018-02-01T00:44:58.040Z,9.70
2018-02-01T00:47:27.681Z,9.60
2018-02-01T00:49:56.188Z,9.97
2018-02-01T00:52:25.188Z,10.00
2018-02-01T00:54:54.970Z,8.43
2018-02-01T00:57:23.210Z,8.73
2018-02-01T00:59:51.466Z,8.20
2018-02-01T01:02:19.738Z,9.90
2018-02-01T01:04:49.472Z,10.50
2018-02-01T01:07:19.083Z,9.10
2018-02-01T01:09:48.352Z,8.97
2018-02-01T01:12:17.927Z,9.77
2018-02-01T01:14:47.214Z,10.73
2018-02-01T01:17:15.439Z,9.73
2018-02-01T01:19:44.055Z,7.43
2018-02-01T01:22:13.694Z,9.17
2018-02-01T01:24:41.815Z,8.50
2018-02-01T01:27:10.031Z,6.87
2018-02-01T01:29:39.072Z,8.20
2018-02-01T01:32:08.060Z,6.20
2018-02-01T01:34:36.280Z,6.20
2018-02-01T01:37:05.310Z,6.40
2018-02-01T01:39:33.523Z,6.00
2018-02-01T01:42:02.879Z,6.03
2018-02-01T01:44:31.132Z,6.17
2018-02-01T01:47:00.712Z,5.30
2018-02-01T01:49:29.576Z,5.60
2018-02-01T01:51:59.198Z,5.90
2018-02-01T01:54:28.657Z,6.10
2018-02-01T01:56:58.124Z,6.30
2018-02-01T01:59:27.409Z,5.77
2018-02-01T02:01:57.007Z,5.50
2018-02-01T02:04:25.534Z,4.93
2018-02-01T02:06:53.796Z,4.10
2018-02-01T02:09:22.020Z,4.97
2018-02-01T02:11:51.748Z,4.07
2018-02-01T02:14:20.015Z,3.57
2018-02-01T02:16:48.227Z,4.77
2018-02-01T02:19:16.462Z,4.10
2018-02-01T02:21:45.683Z,3.83
2018-02-01T02:24:15.408Z,4.20
2018-02-01T02:26:43.631Z,4.03
2018-02-01T02:29:13.415Z,3.53
2018-02-01T02:31:42.996Z,5.27
2018-02-01T02:34:12.456Z,4.50
2018-02-01T02:36:40.981Z,4.33
2018-02-01T02:39:09.208Z,4.50
2018-02-01T02:41:37.428Z,4.10
2018-02-01T02:44:07.198Z,3.97
2018-02-01T02:46:35.424Z,4.40
2018-02-01T02:49:03.643Z,3.90
2018-02-01T02:51:31.910Z,3.57
2018-02-01T02:54:00.142Z,3.97
2018-02-01T02:56:29.882Z,4.70
2018-02-01T02:58:58.167Z,4.10
2018-02-01T03:01:26.395Z,5.47
2018-02-01T03:03:55.032Z,3.40
2018-02-01T03:06:25.610Z,3.17
2018-02-01T03:08:55.082Z,3.70
2018-02-01T03:11:23.182Z,3.47
2018-02-01T03:13:52.951Z,4.17
2018-02-01T03:16:21.586Z,3.90
2018-02-01T03:18:49.803Z,3.73
2018-02-01T03:21:18.055Z,3.30
2018-02-01T03:23:46.294Z,3.62
2018-02-01T03:26:15.864Z,4.60
2018-02-01T03:28:44.031Z,4.37
2018-02-01T03:31:13.402Z,4.50
2018-02-01T03:33:41.616Z,3.97
2018-02-01T03:36:10.637Z,3.40
2018-02-01T03:38:39.624Z,4.20
2018-02-01T03:41:09.195Z,3.40
2018-02-01T03:43:38.695Z,3.33
2018-02-01T03:46:06.795Z,3.00
2018-02-01T03:48:35.031Z,3.10
2018-02-01T03:51:04.058Z,2.97
2018-02-01T03:53:32.284Z,3.47
2018-02-01T03:56:00.512Z,3.17
2018-02-01T03:58:29.627Z,3.40
2018-02-01T04:00:57.872Z,3.30
2018-02-01T04:03:26.931Z,4.23
2018-02-01T04:05:55.232Z,3.87
2018-02-01T04:08:23.463Z,3.77
2018-02-01T04:10:53.216Z,3.80
2018-02-01T04:13:22.247Z,4.27
2018-02-01T04:15:51.229Z,3.53
2018-02-01T04:18:19.448Z,4.97
2018-02-01T04:20:47.708Z,4.87
2018-02-01T04:23:15.928Z,3.60
2018-02-01T04:25:44.163Z,4.50
2018-02-01T04:28:13.210Z,3.60
2018-02-01T04:30:42.576Z,4.00
2018-02-01T04:33:10.808Z,4.37
2018-02-01T04:35:39.060Z,3.50
2018-02-01T04:38:07.279Z,3.07
2018-02-01T04:40:35.522Z,3.90
2018-02-01T04:43:03.775Z,4.83
2018-02-01T04:45:32.770Z,3.63
2018-02-01T04:48:00.991Z,3.93
2018-02-01T04:50:29.244Z,4.20
2018-02-01T04:52:57.472Z,3.80
2018-02-01T04:55:25.718Z,5.03
2018-02-01T04:57:53.983Z,4.10
2018-02-01T05:00:22.204Z,3.70
2018-02-01T05:02:50.820Z,3.70
2018-02-01T05:05:19.967Z,5.57
2018-02-01T05:07:48.246Z,4.23
2018-02-01T05:10:17.828Z,4.53
2018-02-01T05:12:46.699Z,4.75
2018-02-01T05:15:14.982Z,3.50
2018-02-01T05:17:44.362Z,3.60
2018-02-01T05:20:13.364Z,5.30
2018-02-01T05:22:41.666Z,4.10
2018-02-01T05:25:10.651Z,4.13
2018-02-01T05:27:40.044Z,5.20
2018-02-01T05:30:08.719Z,4.40
2018-02-01T05:32:36.958Z,4.93
2018-02-01T05:35:05.176Z,3.73
2018-02-01T05:37:35.040Z,4.30
2018-02-01T05:40:03.272Z,4.68
2018-02-01T05:42:31.487Z,4.70
2018-02-01T05:45:00.352Z,4.10
2018-02-01T05:47:30.080Z,4.40
2018-02-01T05:49:59.651Z,4.80
2018-02-01T05:52:28.184Z,4.33
2018-02-01T05:54:56.404Z,4.07
2018-02-01T05:57:25.038Z,4.27
2018-02-01T05:59:55.010Z,5.43
2018-02-01T06:02:23.246Z,3.60
2018-02-01T06:04:51.471Z,4.20
2018-02-01T06:07:20.534Z,3.97
2018-02-01T06:09:48.756Z,4.20
2018-02-01T06:12:16.998Z,4.93
2018-02-01T06:14:46.779Z,4.63
2018-02-01T06:17:15.018Z,4.63
2018-02-01T06:19:43.274Z,5.00
2018-02-01T06:22:12.896Z,4.07
2018-02-01T06:24:41.399Z,4.50
2018-02-01T06:27:09.646Z,4.00
2018-02-01T06:29:37.954Z,4.03
2018-02-01T06:32:06.184Z,4.67
2018-02-01T06:34:34.437Z,4.35
2018-02-01T06:37:02.703Z,2.87
2018-02-01T06:39:30.936Z,3.75
2018-02-01T06:41:59.198Z,3.90
2018-02-01T06:44:28.229Z,3.70
2018-02-01T06:46:56.454Z,3.40
2018-02-01T06:49:24.677Z,4.93
2018-02-01T06:51:52.946Z,4.53
2018-02-01T06:54:21.186Z,4.12
2018-02-01T06:56:49.415Z,3.55
2018-02-01T06:59:19.200Z,3.70
2018-02-01T07:01:47.904Z,3.97
2018-02-01T07:04:16.892Z,3.35
2018-02-01T07:06:45.152Z,3.87
2018-02-01T07:09:14.178Z,3.90
2018-02-01T07:11:42.463Z,4.37
2018-02-01T07:14:11.851Z,4.00
2018-02-01T07:16:40.088Z,3.62
2018-02-01T07:19:08.333Z,3.47
2018-02-01T07:21:37.036Z,3.87
2018-02-01T07:24:05.666Z,3.58
2018-02-01T07:26:33.887Z,3.08
2018-02-01T07:29:02.168Z,3.60
2018-02-01T07:31:30.392Z,3.67
2018-02-01T07:33:58.628Z,4.05
2018-02-01T07:36:26.894Z,3.93
2018-02-01T07:38:55.120Z,5.67
2018-02-01T07:41:23.348Z,3.90
2018-02-01T07:43:52.755Z,3.80
2018-02-01T07:46:21.426Z,4.53
2018-02-01T07:48:49.667Z,4.10
2018-02-01T07:51:17.923Z,4.17
2018-02-01T07:53:46.160Z,3.00
2018-02-01T07:56:15.028Z,3.23
2018-02-01T07:58:44.055Z,2.90
2018-02-01T08:01:12.288Z,2.80
2018-02-01T08:03:40.522Z,2.67
2018-02-01T08:06:09.926Z,3.00
2018-02-01T08:08:38.152Z,2.90
2018-02-01T08:11:07.131Z,2.90
2018-02-01T08:13:36.182Z,2.90
2018-02-01T08:16:04.407Z,4.37
2018-02-01T08:18:32.646Z,3.37
2018-02-01T08:21:00.910Z,3.23
2018-02-01T08:23:29.132Z,3.50
2018-02-01T08:25:57.352Z,2.83
2018-02-01T08:28:25.617Z,3.53
2018-02-01T08:30:55.201Z,3.23
2018-02-01T08:33:23.314Z,2.57
2018-02-01T08:35:51.563Z,2.60
2018-02-01T08:38:19.799Z,2.70
2018-02-01T08:40:48.031Z,3.50
2018-02-01T08:43:17.653Z,3.17
2018-02-01T08:45:47.542Z,3.80
2018-02-01T08:48:15.764Z,3.23
2018-02-01T08:50:44.787Z,2.90
2018-02-01T08:53:13.802Z,2.87
2018-02-01T08:55:42.060Z,2.80
2018-02-01T08:58:10.387Z,2.67
2018-02-01T09:00:39.005Z,2.63
2018-02-01T09:03:07.217Z,3.03
2018-02-01T09:05:35.494Z,3.97
2018-02-01T09:08:05.219Z,3.77
2018-02-01T09:10:33.431Z,3.43
2018-02-01T09:13:01.683Z,3.50
2018-02-01T09:15:31.191Z,2.97
2018-02-01T09:17:59.807Z,3.40
2018-02-01T09:20:29.447Z,3.87
2018-02-01T09:22:57.940Z,3.23
2018-02-01T09:25:26.160Z,2.97
2018-02-01T09:27:54.424Z,3.00
2018-02-01T09:30:22.662Z,3.60
2018-02-01T09:32:51.648Z,3.53
2018-02-01T09:35:19.899Z,3.63
2018-02-01T09:37:49.467Z,3.77
2018-02-01T09:40:17.967Z,3.60
2018-02-01T09:42:46.230Z,4.40
2018-02-01T09:45:14.455Z,3.97
2018-02-01T09:47:42.693Z,4.47
2018-02-01T09:50:10.959Z,3.57
2018-02-01T09:52:39.189Z,4.07
2018-02-01T09:55:07.408Z,4.60
2018-02-01T09:57:35.680Z,3.80
2018-02-01T10:00:03.900Z,3.67
2018-02-01T10:02:32.123Z,4.30
2018-02-01T10:05:01.769Z,3.83
2018-02-01T10:07:29.890Z,4.60
2018-02-01T10:09:58.532Z,3.50
2018-02-01T10:12:27.564Z,4.10
2018-02-01T10:14:57.181Z,5.10
2018-02-01T10:17:25.675Z,3.80
2018-02-01T10:19:53.928Z,3.13
2018-02-01T10:22:23.517Z,3.53
2018-02-01T10:24:52.004Z,3.63
2018-02-01T10:27:20.277Z,4.03
2018-02-01T10:29:48.509Z,4.00
2018-02-01T10:32:16.727Z,3.60
2018-02-01T10:34:44.984Z,4.27
2018-02-01T10:37:13.611Z,4.10
2018-02-01T10:39:41.844Z,3.80
2018-02-01T10:42:10.107Z,3.33
2018-02-01T10:44:39.473Z,3.30
2018-02-01T10:47:09.063Z,3.97
2018-02-01T10:49:37.673Z,4.53
2018-02-01T10:52:06.292Z,3.53
2018-02-01T10:54:34.507Z,3.40
2018-02-01T10:57:03.550Z,3.53
2018-02-01T10:59:31.772Z,3.73
2018-02-01T11:02:01.352Z,3.47
2018-02-01T11:04:29.891Z,3.57
2018-02-01T11:06:58.123Z,3.37
2018-02-01T11:09:26.354Z,3.27
2018-02-01T11:11:54.604Z,3.80
2018-02-01T11:14:24.336Z,3.37
2018-02-01T11:16:52.569Z,3.30
2018-02-01T11:19:20.832Z,3.30
2018-02-01T11:21:49.052Z,3.30
2018-02-01T11:24:18.623Z,3.60
2018-02-01T11:26:47.540Z,4.20
2018-02-01T11:29:15.776Z,3.60
2018-02-01T11:31:44.008Z,2.90
2018-02-01T11:34:13.066Z,2.50
2018-02-01T11:36:41.333Z,3.03
2018-02-01T11:39:10.914Z,3.07
2018-02-01T11:41:40.215Z,2.70
2018-02-01T11:44:09.589Z,2.90
2018-02-01T11:46:37.814Z,2.80
2018-02-01T11:49:07.437Z,3.50
2018-02-01T11:51:35.928Z,3.97
2018-02-01T11:54:04.166Z,3.30
2018-02-01T11:56:32.411Z,2.70
2018-02-01T11:59:00.635Z,3.00
2018-02-01T12:01:28.871Z,3.40
2018-02-01T12:03:57.123Z,3.90
2018-02-01T12:06:26.695Z,2.97
2018-02-01T12:08:55.560Z,2.80
2018-02-01T12:11:23.831Z,3.17
2018-02-01T12:13:52.820Z,2.63
2018-02-01T12:16:22.402Z,2.67
2018-02-01T12:18:50.928Z,2.73
2018-02-01T12:21:19.144Z,2.50
2018-02-01T12:23:47.364Z,3.10
2018-02-01T12:26:16.034Z,3.40
2018-02-01T12:28:44.261Z,4.47
2018-02-01T12:31:12.518Z,3.00
2018-02-01T12:33:41.933Z,2.63
2018-02-01T12:36:10.175Z,1.97
2018-02-01T12:38:38.396Z,2.60
2018-02-01T12:41:07.728Z,2.20
2018-02-01T12:43:36.353Z,3.10
2018-02-01T12:46:04.972Z,2.30
2018-02-01T12:48:33.224Z,2.30
2018-02-01T12:51:01.444Z,2.67
2018-02-01T12:53:30.452Z,2.30
2018-02-01T12:55:58.735Z,1.93
2018-02-01T12:58:26.943Z,2.30
2018-02-01T13:00:55.163Z,2.50
2018-02-01T13:03:24.788Z,2.10
2018-02-01T13:05:53.271Z,2.07
2018-02-01T13:08:21.506Z,2.47
2018-02-01T13:10:49.767Z,2.50
2018-02-01T13:13:17.984Z,2.13
2018-02-01T13:15:46.218Z,2.30
2018-02-01T13:18:15.992Z,2.30
2018-02-01T13:20:44.222Z,2.33
2018-02-01T13:23:12.444Z,1.90
2018-02-01T13:25:42.063Z,2.33
2018-02-01T13:28:10.927Z,2.30
2018-02-01T13:30:39.164Z,2.47
2018-02-01T13:33:07.442Z,2.83
2018-02-01T13:35:35.673Z,2.73
2018-02-01T13:38:05.266Z,2.37
2018-02-01T13:40:34.160Z,2.50
2018-02-01T13:43:02.791Z,2.50
2018-02-01T13:45:31.008Z,2.40
2018-02-01T13:47:59.280Z,3.10
2018-02-01T13:50:27.503Z,3.43
2018-02-01T13:52:55.738Z,3.70
2018-02-01T13:55:23.998Z,3.03
2018-02-01T13:57:52.217Z,3.07
2018-02-01T14:00:20.435Z,3.70
2018-02-01T14:02:48.695Z,2.93
2018-02-01T14:05:16.907Z,2.93
2018-02-01T14:07:46.639Z,3.50
2018-02-01T14:10:14.928Z,3.17
2018-02-01T14:12:43.182Z,4.10
2018-02-01T14:15:11.430Z,4.37
2018-02-01T14:17:40.472Z,4.80
2018-02-01T14:20:08.744Z,4.30
2018-02-01T14:22:38.320Z,5.67
2018-02-01T14:25:07.803Z,5.33
2018-02-01T14:27:37.050Z,5.37
2018-02-01T14:30:05.278Z,5.90
2018-02-01T14:35:09.650Z,6.20
2018-02-01T14:37:37.878Z,6.03
2018-02-01T14:40:06.136Z,6.73
2018-02-01T14:42:34.800Z,6.90
2018-02-01T14:45:04.532Z,7.07
2018-02-01T14:47:32.748Z,8.27
2018-02-01T14:50:01.785Z,9.13
2018-02-01T14:52:30.790Z,9.53
2018-02-01T14:55:00.392Z,10.20
2018-02-01T14:57:29.887Z,9.27
2018-02-01T14:59:58.410Z,9.63
2018-02-01T15:02:26.640Z,10.50
2018-02-01T15:04:54.917Z,11.43
2018-02-01T15:07:23.148Z,10.57
2018-02-01T15:09:52.724Z,10.63
2018-02-01T15:12:20.992Z,11.23
2018-02-01T15:14:50.008Z,10.60
2018-02-01T15:17:18.252Z,12.37
2018-02-01T15:19:47.276Z,11.63
2018-02-01T15:22:16.267Z,12.07
2018-02-01T15:24:44.542Z,12.00
2018-02-01T15:27:12.852Z,11.40
2018-02-01T15:29:42.253Z,11.10
2018-02-01T15:32:10.488Z,11.40
2018-02-01T15:34:39.930Z,10.33
2018-02-01T15:37:08.941Z,10.10
2018-02-01T15:39:38.523Z,9.70
2018-02-01T15:42:07.448Z,9.47
2018-02-01T15:44:37.922Z,9.57
2018-02-01T15:47:06.549Z,10.80
2018-02-01T15:49:36.185Z,10.93
2018-02-01T15:52:04.694Z,10.20
2018-02-01T15:54:33.692Z,10.20
2018-02-01T15:57:03.108Z,10.20
2018-02-01T15:59:31.744Z,11.20
2018-02-01T16:02:01.116Z,10.23
2018-02-01T16:04:29.380Z,11.67
2018-02-01T16:06:58.420Z,11.30
2018-02-01T16:09:27.783Z,11.40
2018-02-01T16:11:56.047Z,12.40
2018-02-01T16:14:24.276Z,12.80
2018-02-01T16:16:52.522Z,12.03
2018-02-01T16:19:21.989Z,11.00
2018-02-01T16:21:50.948Z,10.23
2018-02-01T16:24:19.231Z,10.30
2018-02-01T16:26:48.297Z,10.87
2018-02-01T16:29:17.880Z,10.27
2018-02-01T16:31:46.397Z,9.37
2018-02-01T16:34:14.678Z,10.70
2018-02-01T16:36:42.930Z,10.40
2018-02-01T16:39:11.187Z,10.53
2018-02-01T16:41:40.997Z,12.13
2018-02-01T16:44:10.008Z,9.53
2018-02-01T16:46:39.371Z,10.07
2018-02-01T16:49:07.638Z,10.67
2018-02-01T16:51:36.259Z,10.40
2018-02-01T16:54:04.483Z,9.00
2018-02-01T16:56:32.771Z,11.43
2018-02-01T16:59:01.767Z,11.20
2018-02-01T17:01:30.760Z,10.13
2018-02-01T17:03:59.035Z,9.77
2018-02-01T17:06:28.034Z,8.87
2018-02-01T17:08:56.260Z,11.20
2018-02-01T17:11:24.519Z,9.47
2018-02-01T17:13:52.751Z,10.10
2018-02-01T17:16:20.983Z,10.03
2018-02-01T17:18:49.264Z,9.77
2018-02-01T17:21:17.518Z,9.67
2018-02-01T17:23:47.103Z,9.13
2018-02-01T17:26:15.283Z,10.23
2018-02-01T17:28:43.538Z,9.50
2018-02-01T17:31:13.134Z,10.40
2018-02-01T17:33:42.434Z,10.40
2018-02-01T17:36:11.820Z,8.93
2018-02-01T17:38:40.046Z,9.13
2018-02-01T17:41:08.700Z,9.73
2018-02-01T17:43:36.936Z,9.40
2018-02-01T17:46:06.515Z,8.80
2018-02-01T17:48:35.069Z,9.20
2018-02-01T17:51:04.631Z,8.37
2018-02-01T17:53:34.257Z,9.03
2018-02-01T17:56:03.863Z,8.10
2018-02-01T17:58:32.381Z,9.03
2018-02-01T18:01:00.614Z,7.97
2018-02-01T18:03:28.932Z,8.53
2018-02-01T18:05:58.511Z,7.87
2018-02-01T18:08:27.017Z,8.03
2018-02-01T18:10:55.286Z,8.57
2018-02-01T18:13:23.506Z,8.43
2018-02-01T18:15:51.720Z,8.20
2018-02-01T18:18:20.002Z,9.37
2018-02-01T18:20:48.228Z,8.90
2018-02-01T18:23:16.473Z,10.27
2018-02-01T18:25:44.732Z,9.60
2018-02-01T18:28:13.735Z,8.17
2018-02-01T18:30:42.014Z,9.23
2018-02-01T18:33:10.291Z,7.00
2018-02-01T18:35:38.508Z,7.97
2018-02-01T18:38:08.087Z,7.67
2018-02-01T18:40:36.275Z,8.00
2018-02-01T18:43:04.485Z,8.53
2018-02-01T18:45:33.475Z,7.50
2018-02-01T18:48:03.240Z,7.80
2018-02-01T18:50:31.464Z,7.90
2018-02-01T18:53:01.207Z,8.80
2018-02-01T18:55:29.456Z,7.60
2018-02-01T18:57:57.672Z,8.50
2018-02-01T19:00:25.892Z,8.17
2018-02-01T19:02:55.836Z,7.30
2018-02-01T19:05:24.503Z,8.60
2018-02-01T19:07:54.063Z,8.90
2018-02-01T19:10:22.972Z,9.30
2018-02-01T19:12:52.565Z,9.13
2018-02-01T19:15:22.176Z,8.90
2018-02-01T19:17:50.493Z,7.70
2018-02-01T19:20:18.713Z,9.17
2018-02-01T19:22:48.075Z,9.03
2018-02-01T19:25:17.685Z,8.23
2018-02-01T19:27:46.303Z,7.07
2018-02-01T19:30:14.593Z,7.80
2018-02-01T19:32:42.866Z,7.57
2018-02-01T19:35:11.161Z,8.60
2018-02-01T19:37:39.436Z,8.50
2018-02-01T19:40:07.697Z,7.80
2018-02-01T19:42:35.915Z,8.70
2018-02-01T19:45:04.148Z,7.93
2018-02-01T19:47:33.755Z,7.20
2018-02-01T19:50:03.368Z,7.27
2018-02-01T19:52:31.591Z,6.70
2018-02-01T19:54:59.857Z,7.37
2018-02-01T19:57:28.134Z,7.03
2018-02-01T19:59:57.896Z,5.83
2018-02-01T20:02:26.208Z,5.93
2018-02-01T20:04:54.415Z,19.93
2018-02-01T20:07:22.687Z,5.23
2018-02-01T20:09:50.932Z,4.20
2018-02-01T20:12:19.147Z,6.20
2018-02-01T20:14:48.781Z,5.80
2018-02-01T20:17:16.932Z,5.27
2018-02-01T20:19:45.221Z,5.10
2018-02-01T20:22:13.440Z,5.73
2018-02-01T20:24:41.835Z,4.77
2018-02-01T20:27:10.117Z,4.77
2018-02-01T20:29:38.371Z,5.13
2018-02-01T20:32:07.384Z,5.60
2018-02-01T20:34:35.672Z,5.00
2018-02-01T20:37:03.914Z,5.30
2018-02-01T20:39:32.166Z,4.97
2018-02-01T20:42:00.399Z,4.73
2018-02-01T20:44:28.703Z,4.37
2018-02-01T20:46:58.090Z,4.90
2018-02-01T20:49:26.367Z,5.00
2018-02-01T20:51:54.626Z,5.13
2018-02-01T20:54:22.878Z,5.50
2018-02-01T20:56:52.505Z,6.65
2018-02-01T20:59:20.991Z,8.17
2018-02-01T21:01:49.308Z,8.70
2018-02-01T21:04:17.523Z,9.45
2018-02-01T21:06:45.817Z,8.75
2018-02-01T21:09:14.843Z,10.17
2018-02-01T21:11:44.465Z,9.73
2018-02-01T21:14:13.340Z,10.60
2018-02-01T21:16:41.663Z,11.40
2018-02-01T21:19:09.952Z,10.47
2018-02-01T21:21:38.230Z,11.47
2018-02-01T21:24:06.543Z,10.90
2018-02-01T21:26:35.523Z,10.93
2018-02-01T21:29:04.586Z,10.57
2018-02-01T21:31:33.233Z,9.53
2018-02-01T21:34:02.978Z,10.17
2018-02-01T21:36:32.393Z,9.10
2018-02-01T21:39:00.681Z,9.60
2018-02-01T21:41:28.897Z,10.30
2018-02-01T21:43:58.487Z,9.30
2018-02-01T21:46:27.391Z,9.60
2018-02-01T21:48:55.663Z,9.50
2018-02-01T21:51:23.926Z,9.70
2018-02-01T21:53:53.004Z,9.33
2018-02-01T21:56:21.230Z,9.80
2018-02-01T21:58:49.520Z,11.20
2018-02-01T22:01:19.664Z,9.50
2018-02-01T22:03:47.939Z,10.67
2018-02-01T22:06:16.167Z,8.97
2018-02-01T22:08:47.691Z,9.23
2018-02-01T22:11:16.367Z,7.20
2018-02-01T22:13:44.589Z,7.90
2018-02-01T22:16:14.004Z,8.23
2018-02-01T22:18:42.296Z,9.57
2018-02-01T22:21:10.569Z,9.03
2018-02-01T22:23:39.600Z,7.90
2018-02-01T22:26:09.182Z,8.00
2018-02-01T22:28:37.279Z,9.63
2018-02-01T22:31:05.574Z,8.17
2018-02-01T22:33:33.799Z,8.00
2018-02-01T22:36:03.414Z,8.07
2018-02-01T22:38:33.071Z,8.00
2018-02-01T22:41:01.295Z,8.00
2018-02-01T22:43:29.593Z,29.20
2018-02-01T22:45:57.878Z,26.87
2018-02-01T22:48:27.662Z,7.30
2018-02-01T22:50:56.618Z,6.90
2018-02-01T22:53:26.023Z,6.40
2018-02-01T22:55:54.645Z,6.90
2018-02-01T22:58:24.064Z,7.37
2018-02-01T23:00:52.324Z,7.73
2018-02-01T23:03:20.558Z,7.77
2018-02-01T23:05:48.776Z,6.70
2018-02-01T23:08:17.048Z,6.63
2018-02-01T23:10:45.289Z,5.90
2018-02-01T23:13:14.669Z,6.00
2018-02-01T23:15:44.614Z,6.03
2018-02-01T23:18:13.240Z,6.83
2018-02-01T23:20:42.990Z,5.57
2018-02-01T23:23:12.618Z,5.53
2018-02-01T23:25:42.075Z,6.23
2018-02-01T23:28:11.578Z,5.80
2018-02-01T23:30:39.732Z,5.90
2018-02-01T23:33:08.348Z,6.73
2018-02-01T23:35:36.571Z,7.03
2018-02-01T23:38:04.839Z,6.10
2018-02-01T23:40:33.843Z,7.00
2018-02-01T23:43:02.467Z,7.87
2018-02-01T23:45:30.760Z,7.93
2018-02-01T23:47:59.001Z,7.73
2018-02-01T23:50:28.593Z,7.90
2018-02-01T23:52:57.136Z,8.43
2018-02-01T23:55:25.367Z,8.17
2018-02-01T23:57:53.591Z,8.33
